Faxinal dos Guedes, Brazil
Current Conditions -  °F | °C
As of 6:00 AM on Monday 24 Nov 2014 (Local Time) from SBCH Reporting Station
Clear Clear  
Wind Chill: 66°   Ceiling: Unl
Heat Index: 66°   Visibility: 6mi
Dew Point: 55°   Wind: 7mph
Humidity: 68%   Direction: 80°E
Pressure: 29.88"   Gusts: NA
Location:  26.85°S, 52.26°W
Report Text: SBCH 240800Z 08006KT CAVOK 19/13 Q1012
Loading
Personal Weather Stations






























Interactive Weather Map New forecast layout! Learn more

10-Day Weather Forecast

Advertisements
Track Severe Weather on mobile